createdAt,value
2023-05-18T00:02:04.236Z,47.13
2023-05-18T00:04:35.290Z,47.15
2023-05-18T00:07:04.148Z,47.07
2023-05-18T00:09:32.060Z,47.17
2023-05-18T00:11:59.785Z,47.14
2023-05-18T00:14:26.519Z,47.17
2023-05-18T00:16:53.841Z,47.00
2023-05-18T00:19:21.331Z,47.18
2023-05-18T00:21:48.308Z,47.12
2023-05-18T00:24:15.824Z,47.22
2023-05-18T00:26:44.360Z,47.34
2023-05-18T00:29:11.411Z,46.95
2023-05-18T00:31:39.239Z,47.16
2023-05-18T00:34:10.805Z,47.30
2023-05-18T00:36:37.557Z,47.30
2023-05-18T00:39:05.753Z,47.30
2023-05-18T00:41:32.501Z,47.46
2023-05-18T00:44:00.735Z,47.26
2023-05-18T00:46:28.601Z,47.17
2023-05-18T00:48:57.141Z,47.37
2023-05-18T00:51:24.783Z,47.41
2023-05-18T00:53:52.596Z,47.27
2023-05-18T00:56:19.932Z,47.35
2023-05-18T00:58:47.869Z,47.30
2023-05-18T01:01:17.590Z,47.97
2023-05-18T01:03:44.015Z,47.26
2023-05-18T01:06:10.475Z,47.32
2023-05-18T01:08:37.168Z,47.30
2023-05-18T01:11:18.809Z,47.28
2023-05-18T01:14:11.398Z,47.30
2023-05-18T01:16:53.678Z,47.31
2023-05-18T01:19:51.319Z,47.40
2023-05-18T01:22:48.801Z,47.37
2023-05-18T01:25:19.389Z,47.43
2023-05-18T01:27:47.260Z,47.42
2023-05-18T01:30:17.012Z,47.46
2023-05-18T01:32:46.900Z,47.45
2023-05-18T01:35:13.481Z,47.55
2023-05-18T01:37:40.179Z,47.55
2023-05-18T01:40:09.187Z,47.49
2023-05-18T01:42:42.899Z,47.35
2023-05-18T01:45:18.552Z,47.37
2023-05-18T01:47:48.042Z,47.42
2023-05-18T01:50:18.339Z,47.44
2023-05-18T01:52:51.334Z,47.42
2023-05-18T01:55:18.358Z,47.40
2023-05-18T01:57:46.406Z,47.52
2023-05-18T02:00:17.738Z,47.47
2023-05-18T02:02:44.945Z,47.49
2023-05-18T02:05:13.999Z,47.47
2023-05-18T02:07:40.766Z,47.48
2023-05-18T02:10:08.763Z,47.42
2023-05-18T02:12:35.248Z,47.47
2023-05-18T02:15:05.463Z,47.54
2023-05-18T02:17:37.953Z,47.64
2023-05-18T02:20:08.309Z,47.61
2023-05-18T02:22:36.027Z,47.55
2023-05-18T02:25:04.996Z,47.61
2023-05-18T02:27:32.243Z,47.50
2023-05-18T02:29:59.210Z,47.55
2023-05-18T02:32:25.637Z,47.53
2023-05-18T02:34:53.028Z,47.47
2023-05-18T02:37:22.908Z,47.55
2023-05-18T02:39:49.893Z,47.54
2023-05-18T02:42:16.296Z,47.49
2023-05-18T02:44:43.655Z,47.60
2023-05-18T02:47:12.762Z,47.53
2023-05-18T02:49:39.159Z,47.48
2023-05-18T02:52:06.117Z,47.50
2023-05-18T02:54:32.540Z,47.49
2023-05-18T02:56:59.974Z,47.51
2023-05-18T02:59:40.132Z,47.08
2023-05-18T03:02:06.638Z,47.45
2023-05-18T03:04:33.275Z,47.32
2023-05-18T03:07:02.539Z,47.51
2023-05-18T03:09:29.485Z,47.40
2023-05-18T03:11:56.661Z,47.54
2023-05-18T03:14:23.222Z,47.50
2023-05-18T03:16:54.208Z,47.57
2023-05-18T03:19:21.823Z,47.61
2023-05-18T03:21:49.426Z,47.42
2023-05-18T03:24:16.214Z,47.47
2023-05-18T03:26:46.333Z,47.50
2023-05-18T03:29:13.446Z,47.52
2023-05-18T03:31:40.929Z,47.62
2023-05-18T03:34:07.953Z,47.60
2023-05-18T03:36:35.553Z,47.51
2023-05-18T03:39:02.239Z,47.64
2023-05-18T03:41:29.833Z,47.49
2023-05-18T03:43:56.277Z,47.68
2023-05-18T03:46:23.210Z,47.46
2023-05-18T03:48:50.487Z,47.75
2023-05-18T03:51:21.100Z,47.65
2023-05-18T03:53:47.755Z,47.79
2023-05-18T03:56:14.221Z,47.60
2023-05-18T03:58:42.282Z,47.72
2023-05-18T04:01:09.315Z,47.73
2023-05-18T04:03:35.799Z,47.55
2023-05-18T04:06:02.252Z,47.68
2023-05-18T04:08:30.192Z,47.56
2023-05-18T04:10:57.691Z,47.73
2023-05-18T04:13:24.103Z,47.73
2023-05-18T04:15:50.717Z,47.79
2023-05-18T04:18:17.960Z,47.73
2023-05-18T04:20:45.975Z,47.73
2023-05-18T04:23:12.490Z,47.67
2023-05-18T04:25:39.152Z,47.53
2023-05-18T04:28:06.087Z,47.91
2023-05-18T04:30:33.172Z,47.82
2023-05-18T04:33:00.480Z,47.77
2023-05-18T04:35:27.507Z,47.69
2023-05-18T04:37:54.570Z,47.80
2023-05-18T04:40:21.057Z,47.77
2023-05-18T04:42:48.959Z,47.77
2023-05-18T04:45:20.521Z,47.71
2023-05-18T04:47:53.256Z,47.66
2023-05-18T04:50:23.636Z,47.76
2023-05-18T04:52:51.238Z,47.84
2023-05-18T04:55:28.228Z,47.73
2023-05-18T04:57:57.960Z,47.48
2023-05-18T05:00:26.342Z,47.71
2023-05-18T05:02:53.958Z,47.69
2023-05-18T05:05:21.381Z,47.78
2023-05-18T05:07:49.889Z,47.71
2023-05-18T05:10:16.521Z,47.80
2023-05-18T05:12:43.001Z,47.29
2023-05-18T05:15:10.854Z,47.86
2023-05-18T05:17:37.553Z,47.73
2023-05-18T05:20:08.130Z,47.83
2023-05-18T05:22:34.988Z,47.64
2023-05-18T05:25:05.724Z,47.75
2023-05-18T05:27:32.700Z,47.77
2023-05-18T05:29:59.135Z,47.79
2023-05-18T05:32:25.685Z,47.68
2023-05-18T05:34:52.293Z,47.69
2023-05-18T05:37:20.234Z,47.88
2023-05-18T05:39:48.096Z,47.76
2023-05-18T05:42:16.829Z,47.72
2023-05-18T05:44:43.278Z,47.66
2023-05-18T05:47:09.893Z,47.71
2023-05-18T05:49:36.435Z,47.60
2023-05-18T05:52:03.448Z,47.62
2023-05-18T05:54:30.123Z,47.78
2023-05-18T05:56:56.595Z,47.62
2023-05-18T05:59:23.401Z,47.74
2023-05-18T06:01:50.873Z,47.79
2023-05-18T06:04:17.503Z,47.78
2023-05-18T06:06:44.110Z,47.79
2023-05-18T06:09:11.669Z,47.83
2023-05-18T06:11:38.130Z,48.15
2023-05-18T06:14:04.757Z,47.83
2023-05-18T06:16:31.507Z,47.78
2023-05-18T06:18:59.373Z,47.80
2023-05-18T06:21:25.834Z,47.84
2023-05-18T06:23:52.538Z,47.88
2023-05-18T06:26:54.253Z,47.54
2023-05-18T06:29:39.436Z,47.68
2023-05-18T06:32:24.432Z,47.68
2023-05-18T06:34:56.403Z,47.85
2023-05-18T06:37:22.813Z,47.80
2023-05-18T06:39:49.238Z,47.75
2023-05-18T06:42:15.814Z,47.75
2023-05-18T06:44:51.407Z,47.29
2023-05-18T06:47:20.840Z,47.77
2023-05-18T06:49:47.309Z,47.92
2023-05-18T06:52:14.569Z,47.85
2023-05-18T06:54:43.173Z,47.83
2023-05-18T06:57:09.589Z,47.84
2023-05-18T06:59:36.023Z,47.76
2023-05-18T07:02:03.606Z,47.77
2023-05-18T07:04:31.498Z,47.66
2023-05-18T07:06:57.893Z,47.70
2023-05-18T07:09:25.498Z,47.77
2023-05-18T07:11:51.901Z,47.70
2023-05-18T07:14:18.329Z,47.72
2023-05-18T07:16:47.163Z,47.83
2023-05-18T07:19:14.285Z,47.99
2023-05-18T07:21:40.880Z,47.76
2023-05-18T07:24:07.278Z,47.71
2023-05-18T07:26:33.736Z,47.77
2023-05-18T07:29:00.143Z,47.75
2023-05-18T07:31:27.281Z,47.77
2023-05-18T07:33:53.689Z,47.76
2023-05-18T07:36:21.036Z,47.81
2023-05-18T07:38:47.543Z,47.76
2023-05-18T07:41:14.016Z,47.84
2023-05-18T07:43:40.423Z,47.86
2023-05-18T07:46:06.901Z,47.91
2023-05-18T07:48:33.314Z,47.85
2023-05-18T07:50:59.727Z,47.91
2023-05-18T07:53:26.237Z,47.89
2023-05-18T07:55:52.709Z,47.93
2023-05-18T07:58:19.453Z,47.86
2023-05-18T08:00:46.084Z,47.93
2023-05-18T08:03:12.529Z,48.19
2023-05-18T08:05:39.034Z,48.07
2023-05-18T08:08:07.035Z,48.14
2023-05-18T08:10:34.142Z,48.05
2023-05-18T08:13:00.805Z,47.97
2023-05-18T08:15:27.205Z,47.74
2023-05-18T08:17:54.922Z,48.00
2023-05-18T08:20:21.540Z,48.08
2023-05-18T08:22:48.001Z,48.07
2023-05-18T08:25:14.416Z,48.25
2023-05-18T08:27:40.941Z,48.16
2023-05-18T08:30:08.572Z,47.74
2023-05-18T08:32:36.924Z,46.67
2023-05-18T08:35:08.241Z,42.30
2023-05-18T08:37:37.186Z,43.46
2023-05-18T08:40:07.928Z,43.84
2023-05-18T08:42:57.573Z,43.92
2023-05-18T08:45:40.035Z,44.21
2023-05-18T08:48:07.706Z,43.95
2023-05-18T08:50:35.562Z,41.88
2023-05-18T08:53:06.123Z,43.13
2023-05-18T08:55:37.078Z,43.48
2023-05-18T08:58:07.183Z,43.71
2023-05-18T09:00:34.222Z,43.74
2023-05-18T09:03:01.368Z,43.87
2023-05-18T09:05:28.148Z,43.90
2023-05-18T09:07:56.117Z,44.27
2023-05-18T09:10:23.986Z,44.29
2023-05-18T09:12:50.699Z,45.03
2023-05-18T09:15:21.767Z,45.19
2023-05-18T09:17:48.196Z,45.28
2023-05-18T09:20:16.399Z,45.30
2023-05-18T09:22:42.967Z,45.45
2023-05-18T09:25:10.594Z,45.45
2023-05-18T09:27:37.811Z,45.62
2023-05-18T09:30:05.156Z,45.59
2023-05-18T09:32:34.892Z,45.62
2023-05-18T09:35:06.338Z,45.66
2023-05-18T09:37:33.324Z,45.91
2023-05-18T09:40:02.134Z,45.91
2023-05-18T09:42:44.139Z,45.92
2023-05-18T09:45:26.774Z,46.13
2023-05-18T09:47:53.774Z,46.12
2023-05-18T09:50:24.597Z,46.25
2023-05-18T09:52:51.321Z,46.14
2023-05-18T09:55:19.765Z,46.10
2023-05-18T09:57:48.284Z,46.13
2023-05-18T10:00:16.826Z,45.98
2023-05-18T10:02:48.687Z,46.00
2023-05-18T10:05:22.745Z,45.87
2023-05-18T10:07:51.167Z,45.87
2023-05-18T10:10:20.081Z,46.03
2023-05-18T10:12:46.916Z,45.94
2023-05-18T10:15:19.599Z,46.13
2023-05-18T10:17:47.723Z,46.11
2023-05-18T10:20:19.427Z,46.31
2023-05-18T10:22:47.674Z,46.28
2023-05-18T10:25:19.793Z,46.43
2023-05-18T10:27:49.386Z,46.44
2023-05-18T10:30:17.694Z,46.61
2023-05-18T10:32:45.930Z,46.52
2023-05-18T10:35:13.502Z,46.42
2023-05-18T10:37:43.534Z,46.78
2023-05-18T10:40:11.335Z,46.60
2023-05-18T10:42:39.491Z,46.69
2023-05-18T10:45:09.328Z,46.66
2023-05-18T10:47:40.161Z,46.90
2023-05-18T10:50:08.210Z,47.02
2023-05-18T10:52:37.274Z,46.87
2023-05-18T10:55:04.356Z,46.90
2023-05-18T10:57:37.519Z,47.06
2023-05-18T11:00:07.629Z,47.43
2023-05-18T11:38:09.078Z,47.51
2023-05-18T11:40:46.952Z,47.67
2023-05-18T11:56:47.858Z,47.91
2023-05-18T11:59:14.465Z,47.99
2023-05-18T12:02:50.349Z,47.85
2023-05-18T12:05:44.863Z,47.93
2023-05-18T12:08:11.647Z,47.69
2023-05-18T12:10:38.443Z,47.78
2023-05-18T12:13:05.967Z,47.94
2023-05-18T12:15:33.466Z,47.72
2023-05-18T12:17:59.923Z,47.77
2023-05-18T12:20:27.214Z,47.62
2023-05-18T12:22:55.354Z,47.54
2023-05-18T12:25:23.829Z,47.71
2023-05-18T12:27:52.645Z,47.34
2023-05-18T12:30:22.112Z,47.23
2023-05-18T12:32:56.435Z,47.49
2023-05-18T12:35:27.034Z,47.53
2023-05-18T12:37:58.140Z,47.68
2023-05-18T12:40:24.667Z,47.43
2023-05-18T12:42:55.390Z,47.50
2023-05-18T12:45:24.313Z,47.38
2023-05-18T12:47:55.314Z,47.42
2023-05-18T12:50:23.448Z,47.36
2023-05-18T12:52:50.340Z,47.44
2023-05-18T12:55:28.235Z,47.53
2023-05-18T12:58:03.167Z,47.46
2023-05-18T13:00:37.162Z,47.54
2023-05-18T13:03:15.585Z,47.47
2023-05-18T13:05:45.115Z,47.46
2023-05-18T13:08:23.310Z,47.38
2023-05-18T13:11:01.292Z,47.39
2023-05-18T13:13:32.127Z,47.45
2023-05-18T13:15:59.444Z,47.30
2023-05-18T13:18:27.508Z,47.60
2023-05-18T13:20:56.334Z,47.34
2023-05-18T13:23:25.028Z,47.32
2023-05-18T13:25:51.657Z,47.30
2023-05-18T13:28:20.344Z,47.41
2023-05-18T13:30:48.603Z,47.52
2023-05-18T13:33:16.880Z,47.39
2023-05-18T13:35:43.893Z,47.31
2023-05-18T13:38:14.083Z,47.31
2023-05-18T13:40:41.658Z,47.25
2023-05-18T13:43:10.283Z,47.58
2023-05-18T13:45:38.872Z,47.50
2023-05-18T13:48:10.712Z,47.46
2023-05-18T13:50:39.831Z,47.44
2023-05-18T13:53:06.651Z,47.44
2023-05-18T13:55:33.438Z,47.42
2023-05-18T13:58:00.760Z,47.74
2023-05-18T14:00:27.743Z,47.52
2023-05-18T14:02:54.206Z,48.75
2023-05-18T14:05:20.777Z,50.14
2023-05-18T14:07:47.233Z,50.61
2023-05-18T14:10:15.672Z,49.75
2023-05-18T14:12:42.674Z,50.37
2023-05-18T14:15:10.335Z,50.13
2023-05-18T14:17:37.215Z,50.56
2023-05-18T14:20:05.511Z,49.68
2023-05-18T14:22:32.400Z,49.37
2023-05-18T14:24:58.867Z,49.32
2023-05-18T14:27:25.434Z,48.92
2023-05-18T14:29:51.807Z,48.88
2023-05-18T14:32:20.731Z,48.69
2023-05-18T14:34:48.300Z,48.52
2023-05-18T14:37:14.691Z,48.33
2023-05-18T14:39:41.086Z,48.31
2023-05-18T14:42:07.790Z,48.47
2023-05-18T14:44:34.190Z,48.20
2023-05-18T14:47:00.737Z,47.98
2023-05-18T14:49:27.349Z,47.85
2023-05-18T14:51:53.880Z,47.93
2023-05-18T14:54:20.370Z,47.97
2023-05-18T14:56:47.024Z,47.93
2023-05-18T14:59:13.592Z,47.68
2023-05-18T15:01:40.040Z,47.29
2023-05-18T15:04:06.492Z,47.62
2023-05-18T15:06:33.355Z,47.68
2023-05-18T15:09:00.575Z,47.83
2023-05-18T15:11:27.022Z,47.45
2023-05-18T15:13:53.417Z,47.48
2023-05-18T15:16:20.006Z,47.11
2023-05-18T15:18:47.089Z,47.33
2023-05-18T15:21:13.619Z,47.39
2023-05-18T15:23:40.070Z,47.77
2023-05-18T15:26:08.924Z,47.81
2023-05-18T15:28:35.750Z,47.96
2023-05-18T15:31:02.145Z,47.60
2023-05-18T15:33:28.554Z,47.85
2023-05-18T15:35:54.961Z,47.91
2023-05-18T15:38:21.408Z,47.99
2023-05-18T15:40:47.911Z,48.02
2023-05-18T15:43:14.377Z,47.82
2023-05-18T15:45:40.845Z,47.82
2023-05-18T15:48:07.360Z,48.06
2023-05-18T15:50:33.868Z,47.95
2023-05-18T15:53:00.376Z,48.01
2023-05-18T15:55:27.304Z,47.78
2023-05-18T15:57:54.030Z,48.01
2023-05-18T16:00:23.227Z,48.04
2023-05-18T16:02:49.877Z,47.88
2023-05-18T16:05:16.398Z,48.01
2023-05-18T16:07:42.852Z,48.09
2023-05-18T16:10:09.389Z,48.13
2023-05-18T16:12:35.812Z,47.96
2023-05-18T16:15:02.264Z,47.67
2023-05-18T16:17:28.714Z,48.08
2023-05-18T16:19:55.196Z,47.72
2023-05-18T16:22:25.502Z,47.51
2023-05-18T16:24:53.328Z,47.63
2023-05-18T16:27:19.724Z,47.65
2023-05-18T16:29:46.182Z,47.63
2023-05-18T16:32:12.685Z,47.67
2023-05-18T16:34:39.111Z,47.15
2023-05-18T16:37:05.798Z,47.39
2023-05-18T16:39:32.405Z,47.38
2023-05-18T16:41:58.809Z,47.32
2023-05-18T16:44:25.219Z,47.38
2023-05-18T16:46:51.789Z,47.23
2023-05-18T16:49:18.956Z,47.48
2023-05-18T16:51:45.341Z,47.07
2023-05-18T16:54:11.799Z,47.24
2023-05-18T16:56:38.272Z,47.47
2023-05-18T16:59:04.727Z,47.22
2023-05-18T17:01:31.224Z,47.40
2023-05-18T17:03:57.940Z,47.53
2023-05-18T17:06:25.584Z,48.06
2023-05-18T17:08:57.350Z,48.13
2023-05-18T17:11:25.985Z,48.78
2023-05-18T17:13:52.560Z,48.74
2023-05-18T17:16:20.236Z,48.83
2023-05-18T17:18:46.785Z,48.69
2023-05-18T17:21:13.203Z,48.92
2023-05-18T17:23:39.594Z,48.57
2023-05-18T17:26:06.863Z,48.76
2023-05-18T17:28:33.415Z,48.77
2023-05-18T17:30:59.931Z,48.78
2023-05-18T17:33:26.533Z,48.73
2023-05-18T17:35:52.972Z,48.88
2023-05-18T17:38:21.556Z,48.86
2023-05-18T17:40:48.148Z,48.64
2023-05-18T17:43:14.555Z,49.07
2023-05-18T17:45:40.988Z,49.06
2023-05-18T17:48:07.459Z,48.79
2023-05-18T17:50:35.798Z,49.01
2023-05-18T17:53:02.582Z,48.65
2023-05-18T17:55:28.967Z,48.69
2023-05-18T17:57:55.420Z,48.83
2023-05-18T18:00:22.438Z,48.44
2023-05-18T18:02:48.880Z,48.64
2023-05-18T18:05:15.551Z,48.65
2023-05-18T18:07:41.943Z,48.55
2023-05-18T18:10:08.924Z,48.72
2023-05-18T18:12:35.385Z,48.65
2023-05-18T18:15:01.836Z,48.49
2023-05-18T18:17:28.929Z,48.64
2023-05-18T18:19:55.674Z,48.75
2023-05-18T18:22:22.403Z,48.73
2023-05-18T18:24:48.796Z,48.64
2023-05-18T18:27:15.261Z,49.29
2023-05-18T18:29:41.674Z,49.97
2023-05-18T18:32:08.766Z,50.35
2023-05-18T18:34:35.483Z,49.94
2023-05-18T18:37:02.463Z,49.21
2023-05-18T18:39:30.096Z,46.17
2023-05-18T18:41:56.811Z,45.73
2023-05-18T18:44:23.242Z,46.66
2023-05-18T18:46:49.786Z,46.89
2023-05-18T18:49:16.311Z,47.11
2023-05-18T18:51:42.766Z,47.13
2023-05-18T18:54:09.155Z,46.87
2023-05-18T18:56:35.768Z,47.15
2023-05-18T18:59:02.235Z,47.03
2023-05-18T19:01:28.698Z,46.93
2023-05-18T19:03:55.550Z,46.83
2023-05-18T19:06:23.078Z,46.54
2023-05-18T19:08:51.974Z,46.76
2023-05-18T19:11:18.367Z,46.80
2023-05-18T19:13:44.781Z,46.70
2023-05-18T19:16:11.282Z,46.60
2023-05-18T19:18:37.698Z,46.68
2023-05-18T19:21:04.148Z,46.64
2023-05-18T19:23:30.854Z,46.61
2023-05-18T19:25:59.409Z,46.61
2023-05-18T19:28:25.820Z,46.58
2023-05-18T19:30:52.216Z,46.74
2023-05-18T19:33:18.793Z,46.55
2023-05-18T19:35:45.631Z,46.59
2023-05-18T19:38:12.186Z,46.53
2023-05-18T19:40:38.599Z,46.62
2023-05-18T19:43:05.008Z,46.43
2023-05-18T19:45:31.755Z,46.58
2023-05-18T19:47:58.457Z,46.52
2023-05-18T19:50:24.973Z,46.55
2023-05-18T19:52:51.393Z,46.50
2023-05-18T19:55:17.978Z,46.62
2023-05-18T19:57:44.498Z,46.49
2023-05-18T20:00:11.172Z,46.57
2023-05-18T20:02:40.367Z,46.26
2023-05-18T20:05:08.042Z,46.47
2023-05-18T20:07:34.454Z,46.47
2023-05-18T20:10:01.034Z,46.47
2023-05-18T20:12:32.008Z,46.55
2023-05-18T20:14:58.711Z,46.53
2023-05-18T20:17:25.914Z,46.54
2023-05-18T20:19:53.318Z,46.51
2023-05-18T20:22:20.250Z,46.51
2023-05-18T20:24:46.686Z,46.41
2023-05-18T20:27:16.298Z,46.38
2023-05-18T20:29:42.899Z,46.38
2023-05-18T20:32:09.595Z,46.49
2023-05-18T20:34:36.557Z,46.19
2023-05-18T20:37:03.496Z,46.22
2023-05-18T20:39:30.489Z,46.39
2023-05-18T20:41:58.577Z,46.55
2023-05-18T20:44:27.873Z,46.36
2023-05-18T20:46:54.305Z,46.18
2023-05-18T20:49:26.933Z,46.21
2023-05-18T20:51:53.354Z,46.34
2023-05-18T20:54:21.270Z,46.28
2023-05-18T20:56:48.009Z,46.37
2023-05-18T20:59:16.206Z,46.28
2023-05-18T21:01:42.980Z,46.36
2023-05-18T21:04:12.584Z,46.56
2023-05-18T21:06:40.774Z,46.48
2023-05-18T21:09:07.979Z,46.50
2023-05-18T21:11:34.697Z,46.42
2023-05-18T21:14:01.120Z,46.34
2023-05-18T21:16:27.667Z,46.35
2023-05-18T21:18:54.160Z,46.26
2023-05-18T21:21:20.870Z,46.31
2023-05-18T21:23:47.401Z,46.30
2023-05-18T21:26:13.813Z,46.15
2023-05-18T21:28:40.217Z,46.22
2023-05-18T21:31:06.633Z,46.19
2023-05-18T21:33:34.178Z,46.15
2023-05-18T21:36:01.546Z,46.34
2023-05-18T21:38:28.392Z,45.67
2023-05-18T21:40:56.149Z,45.64
2023-05-18T21:43:23.171Z,45.64
2023-05-18T21:45:49.858Z,46.05
2023-05-18T21:48:16.280Z,45.80
2023-05-18T21:50:42.796Z,45.92
2023-05-18T21:53:09.206Z,45.99
2023-05-18T21:55:35.595Z,46.00
2023-05-18T21:58:01.998Z,45.89
2023-05-18T22:00:29.886Z,46.24
2023-05-18T22:02:58.176Z,46.00
2023-05-18T22:05:24.624Z,46.09
2023-05-18T22:07:51.150Z,46.24
2023-05-18T22:10:18.104Z,46.32
2023-05-18T22:12:45.060Z,46.24
2023-05-18T22:15:11.708Z,46.07
2023-05-18T22:17:38.902Z,46.61
2023-05-18T22:20:07.074Z,46.20
2023-05-18T22:22:33.567Z,46.42
2023-05-18T22:24:59.962Z,46.56
2023-05-18T22:27:26.607Z,46.37
2023-05-18T22:29:53.043Z,45.95
2023-05-18T22:32:19.590Z,45.92
2023-05-18T22:34:46.291Z,46.03
2023-05-18T22:37:12.990Z,46.04
2023-05-18T22:39:39.426Z,45.97
2023-05-18T22:42:06.115Z,46.02
2023-05-18T22:44:32.626Z,45.96
2023-05-18T22:46:59.122Z,46.13
2023-05-18T22:49:26.103Z,46.12
2023-05-18T22:51:52.768Z,46.00
2023-05-18T22:54:19.356Z,46.18
2023-05-18T22:56:45.744Z,46.06
2023-05-18T22:59:12.171Z,46.08
2023-05-18T23:01:38.868Z,46.30
2023-05-18T23:04:05.437Z,46.22
2023-05-18T23:06:31.912Z,46.24
2023-05-18T23:09:00.289Z,46.34
2023-05-18T23:11:28.385Z,46.23
2023-05-18T23:13:54.846Z,46.53
2023-05-18T23:16:22.539Z,46.39
2023-05-18T23:18:50.408Z,46.60
2023-05-18T23:21:16.965Z,46.52
2023-05-18T23:23:45.533Z,46.80
2023-05-18T23:26:12.662Z,46.66
2023-05-18T23:28:39.170Z,46.92
2023-05-18T23:31:05.594Z,46.77
2023-05-18T23:33:32.404Z,46.81
2023-05-18T23:36:02.416Z,46.77
2023-05-18T23:38:35.236Z,46.97
2023-05-18T23:41:04.096Z,46.80
2023-05-18T23:43:30.754Z,46.99
2023-05-18T23:45:59.526Z,46.94
2023-05-18T23:48:32.174Z,46.93
2023-05-18T23:51:01.394Z,47.23
2023-05-18T23:53:29.116Z,47.39
2023-05-18T23:55:57.574Z,47.10
2023-05-18T23:58:30.917Z,47.09
